Time;durP1;ratioP1;P1;durP2;ratioP2;P2;SDS_P1;SDS_P2;PMS_P1;PMS_P2;Temp;Humidity;BMP_temperature;BMP_pressure;BME280_temperature;BME280_humidity;BME280_pressure;Samples;Min_cycle;Max_cycle;Signal;HPM_P1;HPM_P2
2023/03/15 00:00:46;;;;;;;;;;;;;;;2.72;100.00;101075.81;10455504;28;20363;-63
2023/03/15 00:05:48;;;;;;;;;;;;;;;2.74;100.00;101077.50;10455630;28;19952;-63
2023/03/15 00:10:51;;;;;;;;;;;;;;;2.63;100.00;101094.09;10455462;28;19924;-63
2023/03/15 00:15:55;;;;;;;;;;;;;;;2.76;100.00;101093.81;10456061;28;19929;-63
2023/03/15 00:20:57;;;;;;;;;;;;;;;2.75;100.00;101094.69;10455710;28;19925;-63
2023/03/15 00:26:00;;;;;;;;;;;;;;;2.46;100.00;101095.28;10456052;28;19979;-63
2023/03/15 00:31:03;;;;;;;;;;;;;;;2.76;100.00;101085.22;10457232;28;20265;-63
2023/03/15 00:36:06;;;;;;;;;;;;;;;2.68;100.00;101098.28;10464775;28;19925;-63
2023/03/15 00:41:12;;;;;;;;;;;;;;;2.73;100.00;101090.44;10463163;28;20334;-63
2023/03/15 00:46:14;;;;;;;;;;;;;;;2.68;100.00;101090.53;10464284;28;19936;-63
2023/03/15 00:51:21;;;;;;;;;;;;;;;2.47;100.00;101091.81;10462261;28;19925;-63
2023/03/15 00:56:24;;;;;;;;;;;;;;;2.62;100.00;101110.47;10462768;28;19929;-63
2023/03/15 01:01:27;;;;;;;;;;;;;;;2.67;100.00;101106.06;10462104;28;19932;-63
2023/03/15 01:06:29;;;;;;;;;;;;;;;2.47;100.00;101115.09;10463029;28;19979;-64
2023/03/15 01:11:32;;;;;;;;;;;;;;;2.56;100.00;101121.81;10461041;28;20376;-63
2023/03/15 01:16:34;;;;;;;;;;;;;;;2.76;100.00;101130.03;10462610;28;19929;-63
2023/03/15 01:21:36;;;;;;;;;;;;;;;2.68;100.00;101133.66;10460929;28;19955;-63
2023/03/15 01:26:38;;;;;;;;;;;;;;;2.73;100.00;101135.25;10461328;28;19932;-63
2023/03/15 01:31:40;;;;;;;;;;;;;;;2.79;100.00;101149.78;10460830;28;19971;-63
2023/03/15 01:36:43;;;;;;;;;;;;;;;2.85;100.00;101154.00;10461815;28;20399;-63
2023/03/15 01:41:45;;;;;;;;;;;;;;;2.81;100.00;101149.75;10461088;28;19929;-63
2023/03/15 01:46:47;;;;;;;;;;;;;;;2.80;100.00;101156.66;10460937;28;19974;-63
2023/03/15 01:51:53;;;;;;;;;;;;;;;2.76;100.00;101160.22;10459548;28;20451;-63
2023/03/15 01:57:05;;;;;;;;;;;;;;;2.58;100.00;101170.00;10460961;28;20372;-63
2023/03/15 02:02:07;;;;;;;;;;;;;;;2.48;100.00;101181.38;10458794;28;19925;-63
2023/03/15 02:07:09;;;;;;;;;;;;;;;2.25;100.00;101186.94;10459927;28;19931;-63
2023/03/15 02:12:11;;;;;;;;;;;;;;;2.65;100.00;101183.66;10458367;28;20380;-63
2023/03/15 02:17:14;;;;;;;;;;;;;;;2.57;100.00;101189.00;10459845;28;19936;-63
2023/03/15 02:22:22;;;;;;;;;;;;;;;2.18;100.00;101185.34;10458990;28;19925;-63
2023/03/15 02:27:26;;;;;;;;;;;;;;;2.24;100.00;101180.09;10458622;28;20344;-63
2023/03/15 02:32:28;;;;;;;;;;;;;;;2.44;100.00;101178.88;10458543;28;19925;-63
2023/03/15 02:37:34;;;;;;;;;;;;;;;2.51;100.00;101183.06;10460044;28;19925;-63
2023/03/15 02:42:36;;;;;;;;;;;;;;;2.25;100.00;101188.69;10458265;28;20437;-63
2023/03/15 02:47:38;;;;;;;;;;;;;;;2.28;100.00;101191.22;10457756;28;19924;-63
2023/03/15 02:52:40;;;;;;;;;;;;;;;2.38;100.00;101196.19;10457496;28;19924;-63
2023/03/15 02:57:42;;;;;;;;;;;;;;;1.99;100.00;101210.63;10459220;28;19925;-63
2023/03/15 03:02:45;;;;;;;;;;;;;;;2.02;100.00;101219.16;10457415;28;20277;-63
2023/03/15 03:07:49;;;;;;;;;;;;;;;1.93;100.00;101219.28;10457941;28;19931;-63
2023/03/15 03:12:52;;;;;;;;;;;;;;;1.76;100.00;101229.88;10457614;28;19932;-63
2023/03/15 03:17:54;;;;;;;;;;;;;;;1.71;100.00;101241.97;10456941;28;20380;-63
2023/03/15 03:22:56;;;;;;;;;;;;;;;1.61;100.00;101251.56;10417043;28;19926;-63
2023/03/15 03:28:03;;;;;;;;;;;;;;;1.39;100.00;101270.78;10417951;28;19925;-63
2023/03/15 03:33:05;;;;;;;;;;;;;;;1.53;100.00;101281.81;10457111;28;19925;-63
2023/03/15 03:38:08;;;;;;;;;;;;;;;1.54;100.00;101275.75;10457176;28;19925;-63
2023/03/15 03:43:10;;;;;;;;;;;;;;;1.49;100.00;101280.97;10457052;28;20346;-63
2023/03/15 03:48:12;;;;;;;;;;;;;;;1.50;100.00;101297.34;10456497;28;19924;-63
2023/03/15 03:53:14;;;;;;;;;;;;;;;1.47;100.00;101303.38;10455524;28;19928;-63
2023/03/15 03:58:16;;;;;;;;;;;;;;;1.43;100.00;101317.19;10456556;28;19990;-63
2023/03/15 04:03:19;;;;;;;;;;;;;;;1.29;100.00;101321.63;10457265;28;19928;-63
2023/03/15 04:08:22;;;;;;;;;;;;;;;1.11;100.00;101327.84;10462192;28;19925;-63
2023/03/15 04:13:24;;;;;;;;;;;;;;;1.29;100.00;101345.72;10464243;28;20407;-63
2023/03/15 04:18:26;;;;;;;;;;;;;;;1.27;100.00;101349.19;10462886;28;19995;-63
2023/03/15 04:23:29;;;;;;;;;;;;;;;1.25;100.00;101346.59;10465413;28;19929;-63
2023/03/15 04:28:31;;;;;;;;;;;;;;;1.24;100.00;101351.78;10463993;28;19924;-63
2023/03/15 04:33:33;;;;;;;;;;;;;;;1.37;100.00;101360.25;10464160;28;19924;-63
2023/03/15 04:38:35;;;;;;;;;;;;;;;1.15;100.00;101369.94;10464692;28;19959;-63
2023/03/15 04:43:37;;;;;;;;;;;;;;;1.14;100.00;101374.22;10462965;28;20371;-63
2023/03/15 04:48:40;;;;;;;;;;;;;;;1.13;100.00;101382.84;10463421;28;19925;-63
2023/03/15 04:53:42;;;;;;;;;;;;;;;1.21;100.00;101382.75;10462046;28;19924;-63
2023/03/15 04:58:44;;;;;;;;;;;;;;;1.13;100.00;101390.59;10463383;28;19978;-63
2023/03/15 05:03:47;;;;;;;;;;;;;;;1.32;100.00;101396.44;10463527;28;19947;-63
2023/03/15 05:08:49;;;;;;;;;;;;;;;1.37;100.00;101410.13;10461209;28;20387;-63
2023/03/15 05:13:52;;;;;;;;;;;;;;;1.43;100.00;101414.38;10475624;22;19931;-61
2023/03/15 05:18:55;;;;;;;;;;;;;;;1.40;100.00;101422.16;10504533;28;19924;-61
2023/03/15 05:23:58;;;;;;;;;;;;;;;1.21;100.00;101432.66;10504423;28;19932;-61
2023/03/15 05:29:00;;;;;;;;;;;;;;;1.32;100.00;101442.88;10503050;28;19924;-61
2023/03/15 05:34:03;;;;;;;;;;;;;;;1.61;100.00;101450.31;10485131;28;19928;-61
2023/03/15 05:39:05;;;;;;;;;;;;;;;1.61;100.00;101455.50;10503848;28;19928;-61
2023/03/15 05:44:07;;;;;;;;;;;;;;;1.21;100.00;101458.44;10503170;28;19978;-61
2023/03/15 05:49:10;;;;;;;;;;;;;;;1.61;100.00;101468.38;10501986;28;19929;-61
2023/03/15 05:54:12;;;;;;;;;;;;;;;1.74;100.00;101466.56;10501818;28;20041;-61
2023/03/15 05:59:14;;;;;;;;;;;;;;;1.54;100.00;101474.50;10502380;28;19925;-61
2023/03/15 06:04:16;;;;;;;;;;;;;;;0.97;100.00;101472.34;10501378;28;19924;-61
2023/03/15 06:09:18;;;;;;;;;;;;;;;1.29;100.00;101486.75;10502685;28;19925;-62
2023/03/15 06:14:21;;;;;;;;;;;;;;;1.21;100.00;101488.53;10500132;28;19924;-62
2023/03/15 06:19:23;;;;;;;;;;;;;;;1.10;100.00;101499.78;10502191;28;19954;-62
2023/03/15 06:24:25;;;;;;;;;;;;;;;1.40;100.00;101500.44;10501494;28;20345;-62
2023/03/15 06:29:27;;;;;;;;;;;;;;;1.37;100.00;101508.19;10482734;28;19932;-62
2023/03/15 06:34:30;;;;;;;;;;;;;;;1.42;100.00;101516.75;10500528;28;19971;-62
2023/03/15 06:39:33;;;;;;;;;;;;;;;1.49;100.00;101522.72;10482323;28;19929;-62
2023/03/15 06:44:35;;;;;;;;;;;;;;;1.69;100.00;101519.97;10501062;28;19993;-62
2023/03/15 06:49:37;;;;;;;;;;;;;;;2.00;100.00;101536.03;10499993;28;19928;-62
2023/03/15 06:54:39;;;;;;;;;;;;;;;2.07;100.00;101549.75;10499313;28;20299;-62
2023/03/15 06:59:42;;;;;;;;;;;;;;;2.47;100.00;101566.53;10500563;28;19971;-62
2023/03/15 07:04:44;;;;;;;;;;;;;;;2.23;100.00;101577.13;10498680;28;19924;-62
2023/03/15 07:09:46;;;;;;;;;;;;;;;2.48;100.00;101576.88;10498147;28;20416;-62
2023/03/15 07:14:48;;;;;;;;;;;;;;;2.53;100.00;101592.31;10499440;28;19970;-62
2023/03/15 07:19:51;;;;;;;;;;;;;;;3.10;100.00;101604.56;10499217;28;19925;-62
2023/03/15 07:24:58;;;;;;;;;;;;;;;3.26;100.00;101603.50;10498168;28;19929;-62
2023/03/15 07:30:00;;;;;;;;;;;;;;;3.34;100.00;101609.38;10497886;28;19947;-62
2023/03/15 07:35:02;;;;;;;;;;;;;;;3.74;100.00;101622.63;10498782;28;19924;-62
2023/03/15 07:40:08;;;;;;;;;;;;;;;3.98;100.00;101629.97;10498439;28;19974;-62
2023/03/15 07:45:10;;;;;;;;;;;;;;;4.17;100.00;101634.84;10498197;28;19935;-62
2023/03/15 07:50:13;;;;;;;;;;;;;;;4.60;100.00;101637.53;10496322;28;19928;-62
2023/03/15 07:55:18;;;;;;;;;;;;;;;5.12;100.00;101650.38;10481717;28;19931;-63
2023/03/15 08:00:21;;;;;;;;;;;;;;;5.69;100.00;101649.94;10497881;28;19924;-62
2023/03/15 08:05:24;;;;;;;;;;;;;;;6.18;96.11;101649.69;10497365;28;20322;-62
2023/03/15 08:10:29;;;;;;;;;;;;;;;5.85;96.09;101657.38;10492338;28;20004;-63
2023/03/15 08:15:31;;;;;;;;;;;;;;;6.31;93.50;101661.50;10498059;28;19925;-63
2023/03/15 08:20:33;;;;;;;;;;;;;;;6.93;95.84;101670.25;10494411;28;20334;-62
2023/03/15 08:25:39;;;;;;;;;;;;;;;6.13;90.10;101676.66;10497848;28;20015;-62
2023/03/15 08:30:42;;;;;;;;;;;;;;;6.35;94.00;101681.31;10495789;28;20473;-62
2023/03/15 08:35:44;;;;;;;;;;;;;;;7.90;88.95;101691.66;10498167;28;19931;-62
2023/03/15 08:40:46;;;;;;;;;;;;;;;8.16;85.81;101706.44;10496840;28;19929;-62
2023/03/15 08:45:49;;;;;;;;;;;;;;;8.66;83.51;101699.63;10496541;28;19986;-62
2023/03/15 08:51:03;;;;;;;;;;;;;;;7.60;81.00;101711.72;10499209;28;19956;-62
2023/03/15 08:56:05;;;;;;;;;;;;;;;8.88;79.91;101716.22;10505643;28;19932;-62
2023/03/15 09:01:09;;;;;;;;;;;;;;;10.51;78.07;101709.06;10504757;28;20367;-62
2023/03/15 09:06:12;;;;;;;;;;;;;;;9.01;74.18;101723.59;10505101;28;20034;-62
2023/03/15 09:11:14;;;;;;;;;;;;;;;8.96;74.27;101725.53;10504964;28;19970;-63
2023/03/15 09:16:16;;;;;;;;;;;;;;;10.91;71.07;101727.41;10504399;28;19928;-61
2023/03/15 09:21:19;;;;;;;;;;;;;;;8.24;73.60;101736.63;10504463;28;20027;-61
2023/03/15 09:26:21;;;;;;;;;;;;;;;8.81;73.74;101730.41;10504283;28;19924;-62
2023/03/15 09:31:23;;;;;;;;;;;;;;;8.28;73.19;101739.09;10504211;28;19929;-61
2023/03/15 09:36:26;;;;;;;;;;;;;;;7.88;73.83;101739.53;10504105;28;19931;-62
2023/03/15 09:41:37;;;;;;;;;;;;;;;7.40;72.66;101727.94;10504034;28;19928;-62
2023/03/15 09:46:42;;;;;;;;;;;;;;;7.68;72.72;101732.31;10502923;28;19924;-62
2023/03/15 09:51:50;;;;;;;;;;;;;;;8.77;74.20;101735.78;10485137;28;19947;-62
2023/03/15 09:56:54;;;;;;;;;;;;;;;11.50;75.13;101744.00;10502645;28;20325;-61
2023/03/15 10:01:57;;;;;;;;;;;;;;;8.54;65.27;101747.88;10501842;28;19928;-61
2023/03/15 10:06:59;;;;;;;;;;;;;;;9.78;63.12;101739.88;10501764;28;20286;-61
2023/03/15 10:12:03;;;;;;;;;;;;;;;11.84;58.46;101740.66;10502566;28;19924;-62
2023/03/15 10:17:17;;;;;;;;;;;;;;;13.97;57.92;101736.69;10484005;28;19951;-62
2023/03/15 10:22:43;;;;;;;;;;;;;;;14.71;55.04;101741.22;10501531;28;19925;-62
2023/03/15 10:27:49;;;;;;;;;;;;;;;16.23;53.94;101743.16;10490747;28;19978;-62
2023/03/15 10:32:56;;;;;;;;;;;;;;;16.06;49.94;101739.84;10480755;28;19932;-63
2023/03/15 10:37:59;;;;;;;;;;;;;;;13.76;50.09;101739.59;10448840;28;20336;-63
2023/03/15 10:43:01;;;;;;;;;;;;;;;15.57;45.99;101733.25;10495096;28;19932;-63
2023/03/15 10:48:03;;;;;;;;;;;;;;;16.89;43.98;101739.59;10482598;28;19924;-63
2023/03/15 10:53:09;;;;;;;;;;;;;;;14.92;42.49;101754.03;10500515;28;19925;-64
2023/03/15 10:58:33;;;;;;;;;;;;;;;14.46;44.57;101753.16;10482959;28;19924;-63
2023/03/15 11:03:36;;;;;;;;;;;;;;;13.84;46.44;101762.88;10486623;28;19924;-63
2023/03/15 11:08:39;;;;;;;;;;;;;;;11.60;49.43;101768.91;10481947;28;19924;-63
2023/03/15 11:13:42;;;;;;;;;;;;;;;15.82;42.59;101767.81;10499746;28;19925;-63
2023/03/15 11:18:57;;;;;;;;;;;;;;;13.99;42.65;101774.34;10481734;28;19924;-64
2023/03/15 11:24:03;;;;;;;;;;;;;;;10.81;50.20;101784.63;10497537;28;19932;-63
2023/03/15 11:29:05;;;;;;;;;;;;;;;11.64;50.57;101796.66;10499998;28;19930;-64
2023/03/15 11:34:07;;;;;;;;;;;;;;;15.41;45.92;101785.31;10498756;28;20449;-64
2023/03/15 11:39:14;;;;;;;;;;;;;;;18.93;42.06;101788.41;10497714;28;20549;-64
2023/03/15 11:44:35;;;;;;;;;;;;;;;18.70;38.75;101788.31;10498657;28;20372;-63
2023/03/15 11:49:53;;;;;;;;;;;;;;;16.80;42.15;101787.78;10498078;28;19928;-63
2023/03/15 11:54:56;;;;;;;;;;;;;;;19.00;40.79;101771.03;10480677;28;19924;-63
2023/03/15 12:00:20;;;;;;;;;;;;;;;17.66;37.17;101774.81;10496791;28;19979;-64
2023/03/15 12:05:41;;;;;;;;;;;;;;;12.34;43.91;101780.28;10480563;28;19994;-65
2023/03/15 12:10:45;;;;;;;;;;;;;;;19.59;40.84;101766.44;10497736;28;19924;-66
2023/03/15 12:15:48;;;;;;;;;;;;;;;20.76;36.48;101768.31;10498078;28;19928;-66
2023/03/15 12:20:51;;;;;;;;;;;;;;;18.41;34.02;101760.50;10479305;28;19925;-66
2023/03/15 12:25:54;;;;;;;;;;;;;;;18.35;35.24;101767.97;10479658;28;20337;-66
2023/03/15 12:30:58;;;;;;;;;;;;;;;18.53;36.88;101764.91;10506064;28;19950;-66
2023/03/15 12:36:01;;;;;;;;;;;;;;;16.33;32.52;101778.59;10483054;28;20379;-66
2023/03/15 12:41:07;;;;;;;;;;;;;;;20.66;31.83;101761.22;10462610;28;19925;-66
2023/03/15 12:46:29;;;;;;;;;;;;;;;18.72;35.53;101764.31;10464597;28;19974;-66
2023/03/15 12:51:42;;;;;;;;;;;;;;;20.53;34.21;101762.25;10477416;28;19935;-66
2023/03/15 12:56:49;;;;;;;;;;;;;;;19.67;36.19;101767.50;10505422;28;19931;-66
2023/03/15 13:01:51;;;;;;;;;;;;;;;19.34;31.42;101747.13;10487425;28;19932;-66
2023/03/15 13:07:01;;;;;;;;;;;;;;;19.92;34.04;101757.56;10504406;28;20023;-65
2023/03/15 13:12:15;;;;;;;;;;;;;;;21.76;33.46;101756.06;10486580;28;19925;-65
2023/03/15 13:17:35;;;;;;;;;;;;;;;20.77;33.15;101766.47;10501073;28;20410;-65
2023/03/15 13:22:43;;;;;;;;;;;;;;;19.12;32.00;101766.59;10488142;28;19932;-65
2023/03/15 13:28:06;;;;;;;;;;;;;;;20.44;32.38;101760.34;10502334;28;19924;-64
2023/03/15 13:33:14;;;;;;;;;;;;;;;17.69;36.00;101756.91;10503247;28;19974;-65
2023/03/15 13:38:22;;;;;;;;;;;;;;;19.70;35.27;101750.44;10502666;28;19931;-65
2023/03/15 13:43:25;;;;;;;;;;;;;;;18.33;33.21;101751.31;10498960;28;19964;-65
2023/03/15 13:48:32;;;;;;;;;;;;;;;19.39;32.76;101752.09;10500988;28;19975;-65
2023/03/15 13:53:35;;;;;;;;;;;;;;;18.94;32.61;101761.72;10499809;28;19932;-65
2023/03/15 13:58:50;;;;;;;;;;;;;;;18.05;32.65;101762.31;10500096;28;19925;-64
2023/03/15 14:03:54;;;;;;;;;;;;;;;18.31;31.85;101769.16;10483199;28;19924;-64
2023/03/15 14:09:01;;;;;;;;;;;;;;;17.63;34.24;101755.56;10498883;28;19970;-64
2023/03/15 14:14:13;;;;;;;;;;;;;;;17.86;32.17;101771.56;10482542;28;19978;-64
2023/03/15 14:19:17;;;;;;;;;;;;;;;16.86;32.97;101776.81;10468932;28;19925;-66
2023/03/15 14:24:22;;;;;;;;;;;;;;;20.08;32.26;101772.25;10458452;28;20039;-65
2023/03/15 14:29:27;;;;;;;;;;;;;;;18.46;29.31;101782.22;10442225;28;19964;-65
2023/03/15 14:34:36;;;;;;;;;;;;;;;17.86;32.98;101776.88;10475345;28;19924;-65
2023/03/15 14:39:39;;;;;;;;;;;;;;;16.93;33.00;101793.13;10497168;28;19929;-65
2023/03/15 14:44:41;;;;;;;;;;;;;;;17.53;34.16;101788.91;10482566;28;19924;-65
2023/03/15 14:49:43;;;;;;;;;;;;;;;18.57;33.73;101784.91;10499042;28;19924;-65
2023/03/15 14:54:47;;;;;;;;;;;;;;;17.24;35.51;101788.34;10498685;28;19928;-65
2023/03/15 14:59:49;;;;;;;;;;;;;;;17.10;33.20;101786.66;10498957;28;19929;-65
2023/03/15 15:04:51;;;;;;;;;;;;;;;16.12;33.40;101783.47;10498633;28;20367;-65
2023/03/15 15:09:53;;;;;;;;;;;;;;;17.20;38.01;101781.56;10500066;28;19925;-65
2023/03/15 15:14:55;;;;;;;;;;;;;;;16.27;32.06;101774.56;10497187;28;19924;-65
2023/03/15 15:19:58;;;;;;;;;;;;;;;15.70;32.36;101782.63;10495868;28;19956;-65
2023/03/15 15:25:00;;;;;;;;;;;;;;;16.11;36.57;101777.38;10497200;28;19924;-65
2023/03/15 15:30:02;;;;;;;;;;;;;;;16.57;33.45;101770.81;10480156;28;19928;-65
2023/03/15 15:35:06;;;;;;;;;;;;;;;16.10;32.54;101772.16;10495938;28;19924;-65
2023/03/15 15:40:20;;;;;;;;;;;;;;;17.36;33.24;101761.00;10495653;28;20179;-65
2023/03/15 15:45:23;;;;;;;;;;;;;;;17.41;35.31;101755.38;10479964;28;19932;-64
2023/03/15 15:50:26;;;;;;;;;;;;;;;16.41;33.79;101754.28;10496649;28;19947;-64
2023/03/15 15:55:32;;;;;;;;;;;;;;;15.33;34.19;101748.00;10497404;28;20368;-64
2023/03/15 16:00:34;;;;;;;;;;;;;;;15.93;34.93;101741.59;10494777;28;19977;-64
2023/03/15 16:05:36;;;;;;;;;;;;;;;16.08;33.96;101743.22;10497262;28;19975;-64
2023/03/15 16:10:39;;;;;;;;;;;;;;;13.96;36.12;101750.81;10496859;28;19925;-64
2023/03/15 16:15:41;;;;;;;;;;;;;;;12.47;38.49;101754.28;10497863;28;19931;-64
2023/03/15 16:20:43;;;;;;;;;;;;;;;12.19;39.53;101756.50;10495180;28;20039;-64
2023/03/15 16:25:50;;;;;;;;;;;;;;;11.58;40.68;101756.75;10496418;28;19924;-64
2023/03/15 16:30:52;;;;;;;;;;;;;;;11.12;44.59;101760.53;10479349;28;19924;-64
2023/03/15 16:35:54;;;;;;;;;;;;;;;10.98;43.19;101762.94;10495596;28;20283;-64
2023/03/15 16:40:57;;;;;;;;;;;;;;;10.20;44.76;101767.88;10495053;28;19932;-63
2023/03/15 16:45:59;;;;;;;;;;;;;;;9.90;46.83;101761.25;10479475;28;19928;-63
2023/03/15 16:51:03;;;;;;;;;;;;;;;9.15;51.29;101771.00;10478448;28;19928;-63
2023/03/15 16:56:08;;;;;;;;;;;;;;;9.20;51.53;101776.91;10478282;28;19925;-63
2023/03/15 17:01:10;;;;;;;;;;;;;;;9.00;55.10;101776.78;10495337;28;19930;-63
2023/03/15 17:06:18;;;;;;;;;;;;;;;8.27;57.55;101788.72;10492001;28;20252;-63
2023/03/15 17:11:21;;;;;;;;;;;;;;;7.98;57.95;101798.31;10479146;28;20383;-63
2023/03/15 17:16:23;;;;;;;;;;;;;;;7.73;59.38;101791.25;10457925;28;20281;-63
2023/03/15 17:21:25;;;;;;;;;;;;;;;7.49;61.85;101787.59;10461473;28;19925;-63
2023/03/15 17:26:29;;;;;;;;;;;;;;;6.88;62.16;101790.13;10462360;28;19937;-63
2023/03/15 17:31:32;;;;;;;;;;;;;;;6.81;62.92;101791.19;10437918;22;19931;-63
2023/03/15 17:36:36;;;;;;;;;;;;;;;6.15;64.50;101793.63;10420714;28;19925;-63
2023/03/15 17:41:39;;;;;;;;;;;;;;;6.13;63.63;101798.84;10420703;28;19931;-63
2023/03/15 17:46:42;;;;;;;;;;;;;;;5.98;64.60;101791.41;10419909;28;20015;-63
2023/03/15 17:51:44;;;;;;;;;;;;;;;5.64;67.01;101802.50;10419629;28;20335;-62
2023/03/15 17:56:47;;;;;;;;;;;;;;;5.55;67.46;101797.50;10418921;28;20380;-63
2023/03/15 18:01:50;;;;;;;;;;;;;;;5.49;67.26;101805.41;10418976;28;20323;-63
2023/03/15 18:06:55;;;;;;;;;;;;;;;5.38;67.08;101808.22;10419107;28;19968;-62
2023/03/15 18:11:57;;;;;;;;;;;;;;;5.10;69.71;101821.72;10419258;28;19925;-63
2023/03/15 18:17:00;;;;;;;;;;;;;;;5.04;69.15;101832.19;10419266;28;19973;-62
2023/03/15 18:22:05;;;;;;;;;;;;;;;4.90;71.60;101837.63;10418156;28;19959;-62
2023/03/15 18:27:09;;;;;;;;;;;;;;;4.93;71.07;101841.94;10418060;28;20372;-62
2023/03/15 18:32:12;;;;;;;;;;;;;;;4.69;72.28;101844.06;10417405;28;19925;-63
2023/03/15 18:37:14;;;;;;;;;;;;;;;4.65;73.83;101842.38;10418049;28;20439;-62
2023/03/15 18:42:16;;;;;;;;;;;;;;;4.55;73.69;101851.19;10417508;28;19940;-62
2023/03/15 18:47:18;;;;;;;;;;;;;;;4.56;73.61;101847.72;10418686;28;19925;-62
2023/03/15 18:52:21;;;;;;;;;;;;;;;4.56;73.73;101840.78;10418512;28;19932;-62
2023/03/15 18:57:24;;;;;;;;;;;;;;;4.51;73.15;101842.59;10416407;28;19925;-62
2023/03/15 19:02:27;;;;;;;;;;;;;;;4.61;74.75;101844.16;10416551;28;19926;-62
2023/03/15 19:07:29;;;;;;;;;;;;;;;4.54;74.04;101833.91;10416333;28;20360;-63
2023/03/15 19:12:32;;;;;;;;;;;;;;;4.49;75.45;101835.72;10417685;28;19983;-63
2023/03/15 19:17:34;;;;;;;;;;;;;;;4.34;76.26;101835.06;10416185;28;19925;-62
2023/03/15 19:22:36;;;;;;;;;;;;;;;4.58;74.79;101827.81;10400175;28;20386;-63
2023/03/15 19:27:39;;;;;;;;;;;;;;;4.67;74.34;101822.44;10415574;28;19929;-63
2023/03/15 19:32:44;;;;;;;;;;;;;;;4.56;74.02;101816.59;10416167;28;20298;-63
2023/03/15 19:37:46;;;;;;;;;;;;;;;4.53;72.20;101814.91;10416287;28;20028;-63
2023/03/15 19:42:49;;;;;;;;;;;;;;;4.50;73.49;101819.28;10416805;28;19979;-63
2023/03/15 19:47:51;;;;;;;;;;;;;;;4.46;72.88;101832.28;10416389;28;19925;-63
2023/03/15 19:52:53;;;;;;;;;;;;;;;4.33;75.04;101829.91;10416060;28;19976;-63
2023/03/15 19:57:56;;;;;;;;;;;;;;;4.27;75.13;101826.53;10435875;28;19948;-62
2023/03/15 20:02:58;;;;;;;;;;;;;;;4.20;75.69;101827.50;10414854;28;19925;-63
2023/03/15 20:08:01;;;;;;;;;;;;;;;4.33;75.00;101814.34;10414183;28;19929;-63
2023/03/15 20:13:03;;;;;;;;;;;;;;;4.42;73.95;101820.25;10414844;28;19925;-63
2023/03/15 20:18:06;;;;;;;;;;;;;;;4.49;73.10;101821.03;10413656;28;19979;-63
2023/03/15 20:23:09;;;;;;;;;;;;;;;4.40;73.07;101829.78;10414596;28;20080;-63
2023/03/15 20:28:11;;;;;;;;;;;;;;;3.99;75.07;101814.84;10411937;28;20372;-63
2023/03/15 20:33:14;;;;;;;;;;;;;;;4.54;72.44;101824.41;10409456;28;20027;-63
2023/03/15 20:38:16;;;;;;;;;;;;;;;4.11;74.02;101821.59;10414645;28;20034;-63
2023/03/15 20:43:18;;;;;;;;;;;;;;;3.97;75.59;101829.53;10414342;28;20438;-63
2023/03/15 20:48:22;;;;;;;;;;;;;;;3.69;75.75;101828.16;10418790;28;19929;-62
2023/03/15 20:53:24;;;;;;;;;;;;;;;4.17;73.27;101824.97;10421875;28;19994;-63
2023/03/15 20:58:27;;;;;;;;;;;;;;;3.98;74.04;101823.47;10421505;28;19925;-63
2023/03/15 21:03:33;;;;;;;;;;;;;;;3.94;72.63;101821.81;10421377;28;19928;-63
2023/03/15 21:08:36;;;;;;;;;;;;;;;4.00;73.10;101825.19;10409279;28;19971;-63
2023/03/15 21:13:38;;;;;;;;;;;;;;;4.04;70.96;101815.63;10418599;28;20008;-63
2023/03/15 21:18:46;;;;;;;;;;;;;;;4.33;71.55;101811.75;10417721;28;19944;-62
2023/03/15 21:23:48;;;;;;;;;;;;;;;4.05;70.27;101807.84;10416500;28;19932;-63
2023/03/15 21:28:51;;;;;;;;;;;;;;;4.23;68.13;101813.63;10416621;28;20014;-63
2023/03/15 21:33:54;;;;;;;;;;;;;;;4.02;70.84;101804.44;10421006;28;19925;-63
2023/03/15 21:39:00;;;;;;;;;;;;;;;4.03;70.22;101791.44;10418729;28;19929;-63
2023/03/15 21:44:03;;;;;;;;;;;;;;;4.01;70.37;101803.56;10419527;28;19925;-63
2023/03/15 21:49:06;;;;;;;;;;;;;;;4.08;71.33;101789.66;10419561;28;20051;-64
2023/03/15 21:54:08;;;;;;;;;;;;;;;4.05;71.97;101781.94;10420294;28;19933;-63
2023/03/15 21:59:11;;;;;;;;;;;;;;;3.98;72.48;101777.69;10418340;28;20296;-64
2023/03/15 22:04:13;;;;;;;;;;;;;;;3.73;72.69;101772.00;10419111;28;20395;-63
2023/03/15 22:09:15;;;;;;;;;;;;;;;3.78;72.97;101772.78;10406356;28;19925;-64
2023/03/15 22:14:18;;;;;;;;;;;;;;;3.89;72.92;101772.66;10419135;28;19932;-63
2023/03/15 22:19:20;;;;;;;;;;;;;;;3.77;72.54;101772.84;10417645;28;19929;-63
2023/03/15 22:24:22;;;;;;;;;;;;;;;3.93;72.13;101769.13;10418318;28;19925;-63
2023/03/15 22:29:24;;;;;;;;;;;;;;;3.75;71.68;101761.59;10418638;28;20308;-63
2023/03/15 22:34:26;;;;;;;;;;;;;;;3.78;72.24;101765.00;10418466;28;19979;-64
2023/03/15 22:39:30;;;;;;;;;;;;;;;3.82;72.16;101776.22;10419161;28;19925;-64
2023/03/15 22:44:33;;;;;;;;;;;;;;;3.89;72.86;101770.06;10417103;28;19925;-63
2023/03/15 22:49:35;;;;;;;;;;;;;;;3.70;73.18;101751.34;10417420;28;19948;-64
2023/03/15 22:54:37;;;;;;;;;;;;;;;3.76;73.40;101756.41;10415924;28;20388;-64
2023/03/15 22:59:39;;;;;;;;;;;;;;;3.71;74.59;101756.47;10417689;28;19929;-64
2023/03/15 23:04:43;;;;;;;;;;;;;;;3.60;75.92;101760.06;10418060;28;19929;-63
2023/03/15 23:09:46;;;;;;;;;;;;;;;3.59;76.10;101759.22;10416843;28;19960;-64
2023/03/15 23:14:48;;;;;;;;;;;;;;;3.35;75.75;101760.41;10416574;28;19929;-63
2023/03/15 23:19:50;;;;;;;;;;;;;;;3.45;76.96;101751.63;10416125;28;19925;-64
2023/03/15 23:24:56;;;;;;;;;;;;;;;3.14;77.85;101748.53;10416723;28;19925;-63
2023/03/15 23:29:59;;;;;;;;;;;;;;;3.31;77.98;101749.22;10415615;28;19964;-64
2023/03/15 23:35:02;;;;;;;;;;;;;;;3.40;77.35;101740.47;10415254;28;20320;-64
2023/03/15 23:40:10;;;;;;;;;;;;;;;3.40;76.95;101734.47;10415871;28;19972;-64
2023/03/15 23:45:14;;;;;;;;;;;;;;;3.44;76.57;101728.34;10415703;28;19925;-63
2023/03/15 23:50:16;;;;;;;;;;;;;;;3.52;75.76;101722.19;10414341;28;19969;-64
2023/03/15 23:55:19;;;;;;;;;;;;;;;3.46;76.97;101730.06;10415916;28;19925;-64
